29分钟前
罗盘
风向 的 风向 的 风向 到 风向 260° Groningen Airport Eelde 5/23
风: 17 千吨, 5 beaufort
0 0 0.17778093859221 500 0.32299085377319 1.500 0.47075341907445 3.000 0.62138884920159 5.000 0.8022287624727 8.000 0.90566318494517 10.000
BKN 2.600 ft
BKN 3.300 ft
BKN 4.400 ft
METAR EHGG 220825Z AUTO 26017KT 220V290 9999 BKN026 BKN033 BKN044 10/06 Q1007 REDZ TEMPO 7000 -SHRA FEW025CB

METAR定义 | 嵌入

24小时趋势

航班类别VFRLIFR
温度11 °C5 °C
风速18 千吨0 千吨
能见度10 公里+0 米

更多历史数据

下载我们的安卓应用程序

从你的主屏幕上轻松地访问你的航空天气。
只需一次付费,您就可以获得无广告的体验。

您会帮助我们保持Metar-Taf.com正常运行吗?
您的贡献有助于网站的进一步开发并支付费用。

没有更多广告

您是捐款5美元还是更多?然后,我们将永远不会再向您展示广告,这是我们永恒的感谢!
捐赠前先登录

METAR Groningen Airport Eelde

Groningen Airport Eelde是Groningen,荷兰中的中型机场。 机场有{a,plural,=1{一条跑道} other{#跑道}}: 5/23

该报告是针对2021年10月22日 10:25, 当地时间上的Groningen Airport Eelde所做的。

机场观察

风来自西 (260°)方向,速度为17 千吨。 风向在南西 (220°)和西北西 (290°)之间变化。

可见度为10 公里 或者更多。

有碎云在2.600 ft的高度, 碎云在3.300 ft的高度 和 碎云在4.400 ft的高度。 破损或更高的上限为2.600 ft。

温度为10 °C,阵风为5 °C。 露点为6 °C,相对湿度为76%。 海平面上的气压为1007 压力 (QNH)。 最近是细雨。

发展趋势

  • 暂时的

    可变方向的风很小或没有。 可见性变为7 公里。 重大天气:光 阵雨 雨。 几云 , 积雨云在2.500 ft的高度.

白天

今天,太阳从08:13升起,在18:22降落。 这适用于Groningen Airport Eelde,世界夏令时可能有所不同。 当地时间与世界标准时间之间的时差为+2 小时。 夏令时目前正在进行中。

公司介绍

在这个机场,你可以找到飞行学校。 这个机场上的公司有Noord Nederlandse Aeroclub- Eelde, Martinair Flight Academy, KLM Luchtvaartschool, EFTC 和 KLM Flight Academy。

体会

到Vliegles.nl去找飞行课程,跳伞和其他飞行体验。 浏览页面,了解Groningen Airport Eelde附近所有可用的活动。 你也可以使用搜索功能来寻找你所在地附近的特定飞行课程、跳伞或其他飞行体验。

您是否要在网站上Groningen Airport Eelde飞行的天气? 阅读更多   自由!